AEE118 LGIO-LGAV
Flight info
| Callsign | AEE118 |
|---|---|
| Flight time | N/A |
| Altitude | 23000 |
| Route | IBTIN L611 GARTA L53 PIKAD |
| Aircraft | A320/M-SDE3FGHIRWY/LB1 |
Departure
| Time | 2026-04-17 15:45 |
|---|---|
| Airport | Ioannina King Pyrrhus National Airport (LGIO) |
Arrival
| Time | N/A |
|---|---|
| Airport | Athens Eleftherios Venizelos International Airport (LGAV) |
| Time | Latitude | Longitude | Altitude | Speed | Heading |
|---|---|---|---|---|---|
| 2026-04-17 15:29 | 39.69330 | 20.82324 | 1565 ft | 0 kts | 275° |
| 2026-04-17 15:42 | 39.69336 | 20.82318 | 1565 ft | 2 kts | 323° |
| 2026-04-17 15:42 | 39.69350 | 20.82342 | 1565 ft | 6 kts | 72° |
| 2026-04-17 15:42 | 39.69340 | 20.82415 | 1565 ft | 11 kts | 131° |
| 2026-04-17 15:43 | 39.69283 | 20.82487 | 1565 ft | 12 kts | 124° |
| 2026-04-17 15:43 | 39.69250 | 20.82594 | 1566 ft | 14 kts | 111° |
| 2026-04-17 15:43 | 39.69196 | 20.82732 | 1568 ft | 19 kts | 130° |
| 2026-04-17 15:43 | 39.69091 | 20.82846 | 1568 ft | 21 kts | 143° |
| 2026-04-17 15:44 | 39.68976 | 20.82964 | 1568 ft | 22 kts | 143° |
| 2026-04-17 15:44 | 39.68904 | 20.83033 | 1567 ft | 7 kts | 65° |
| 2026-04-17 15:44 | 39.68923 | 20.83022 | 1567 ft | 3 kts | 320° |
| 2026-04-17 15:44 | 39.68974 | 20.82968 | 1568 ft | 33 kts | 320° |
| 2026-04-17 15:45 | 39.69347 | 20.82578 | 1567 ft | 101 kts | 322° |
| 2026-04-17 15:45 | 39.70040 | 20.81869 | 1571 ft | 150 kts | 322° |
| 2026-04-17 15:45 | 39.70891 | 20.80980 | 1999 ft | 158 kts | 321° |
| 2026-04-17 15:45 | 39.71760 | 20.80080 | 2537 ft | 167 kts | 320° |
| 2026-04-17 15:46 | 39.72572 | 20.78955 | 2998 ft | 174 kts | 314° |
| 2026-04-17 15:46 | 39.73356 | 20.77736 | 3509 ft | 179 kts | 311° |
| 2026-04-17 15:46 | 39.74152 | 20.76457 | 4008 ft | 185 kts | 311° |
| 2026-04-17 15:46 | 39.74960 | 20.75148 | 4508 ft | 188 kts | 311° |
| 2026-04-17 15:47 | 39.75788 | 20.73805 | 4988 ft | 192 kts | 311° |
| 2026-04-17 15:47 | 39.76629 | 20.72443 | 5465 ft | 195 kts | 311° |
| 2026-04-17 15:47 | 39.77496 | 20.71045 | 5872 ft | 205 kts | 311° |
| 2026-04-17 15:47 | 39.78434 | 20.69544 | 6052 ft | 228 kts | 311° |
| 2026-04-17 15:48 | 39.79459 | 20.67908 | 6685 ft | 235 kts | 311° |
| 2026-04-17 15:48 | 39.80491 | 20.66258 | 7491 ft | 236 kts | 311° |
| 2026-04-17 15:48 | 39.81413 | 20.64487 | 8273 ft | 241 kts | 292° |
| 2026-04-17 15:48 | 39.81604 | 20.62311 | 9027 ft | 249 kts | 262° |
| 2026-04-17 15:49 | 39.80935 | 20.60232 | 9767 ft | 255 kts | 232° |
| 2026-04-17 15:49 | 39.79544 | 20.58812 | 10430 ft | 259 kts | 201° |
| 2026-04-17 15:49 | 39.77773 | 20.58483 | 11096 ft | 260 kts | 169° |
| 2026-04-17 15:49 | 39.76057 | 20.59251 | 11501 ft | 275 kts | 150° |